N8244L EDDW-EDDC
Flight info
| Callsign | N8244L |
|---|---|
| Flight time | 0h 52m |
| Altitude | 23000 |
| Route | NIE2M NIE Z88 SAS DCT GITEX DCT ADMOS T959 KENIG DCT LLD DCT TORPU |
| Aircraft | STAR/L-SDFGRWY/S |
Departure
| Time | 2026-05-07 19:15 |
|---|---|
| Airport | Bremen Airport (EDDW) |
Arrival
| Time | 2026-05-07 20:08 |
|---|---|
| Airport | Dresden Airport (EDDC) |
| Time | Latitude | Longitude | Altitude | Speed | Heading |
|---|---|---|---|---|---|
| 2026-05-07 18:50 | 53.05245 | 8.77936 | 18 ft | 0 kts | 223° |
| 2026-05-07 19:10 | 53.05224 | 8.77919 | 18 ft | 6 kts | 167° |
| 2026-05-07 19:11 | 53.05193 | 8.77956 | 18 ft | 6 kts | 153° |
| 2026-05-07 19:11 | 53.05149 | 8.77957 | 18 ft | 8 kts | 233° |
| 2026-05-07 19:11 | 53.05116 | 8.77889 | 18 ft | 8 kts | 229° |
| 2026-05-07 19:11 | 53.05065 | 8.77796 | 18 ft | 12 kts | 226° |
| 2026-05-07 19:12 | 53.05005 | 8.77689 | 18 ft | 12 kts | 226° |
| 2026-05-07 19:12 | 53.04945 | 8.77582 | 18 ft | 12 kts | 223° |
| 2026-05-07 19:12 | 53.04881 | 8.77503 | 18 ft | 11 kts | 206° |
| 2026-05-07 19:12 | 53.04818 | 8.77464 | 18 ft | 9 kts | 195° |
| 2026-05-07 19:13 | 53.04751 | 8.77450 | 18 ft | 12 kts | 179° |
| 2026-05-07 19:13 | 53.04679 | 8.77484 | 18 ft | 9 kts | 141° |
| 2026-05-07 19:13 | 53.04659 | 8.77536 | 18 ft | 2 kts | 86° |
| 2026-05-07 19:13 | 53.04659 | 8.77537 | 18 ft | 0 kts | 86° |
| 2026-05-07 19:14 | 53.04661 | 8.77583 | 18 ft | 21 kts | 87° |
| 2026-05-07 19:15 | 53.04672 | 8.78098 | 18 ft | 67 kts | 88° |
| 2026-05-07 19:15 | 53.04696 | 8.79113 | 51 ft | 106 kts | 89° |
| 2026-05-07 19:15 | 53.04748 | 8.80443 | 507 ft | 121 kts | 87° |
| 2026-05-07 19:15 | 53.04774 | 8.81862 | 1202 ft | 124 kts | 92° |
| 2026-05-07 19:16 | 53.04791 | 8.83285 | 1806 ft | 128 kts | 88° |
| 2026-05-07 19:16 | 53.04834 | 8.84899 | 2090 ft | 152 kts | 88° |
| 2026-05-07 19:16 | 53.04597 | 8.86740 | 2317 ft | 175 kts | 117° |
| 2026-05-07 19:16 | 53.03908 | 8.88418 | 2923 ft | 175 kts | 123° |
| 2026-05-07 19:17 | 53.03038 | 8.89832 | 3535 ft | 178 kts | 141° |
| 2026-05-07 19:17 | 53.02000 | 8.90977 | 4160 ft | 178 kts | 142° |
| 2026-05-07 19:17 | 53.00979 | 8.92149 | 4821 ft | 179 kts | 141° |
| 2026-05-07 19:17 | 52.99969 | 8.93345 | 5504 ft | 179 kts | 141° |
| 2026-05-07 19:18 | 52.98953 | 8.94552 | 6179 ft | 180 kts | 141° |
| 2026-05-07 19:18 | 52.97927 | 8.95770 | 6819 ft | 183 kts | 141° |
| 2026-05-07 19:18 | 52.96877 | 8.97013 | 7438 ft | 187 kts | 142° |
| 2026-05-07 19:18 | 52.95802 | 8.98286 | 8068 ft | 193 kts | 142° |
| 2026-05-07 19:19 | 52.94697 | 8.99592 | 8716 ft | 197 kts | 143° |
| 2026-05-07 19:19 | 52.93566 | 9.00929 | 9373 ft | 201 kts | 143° |
| 2026-05-07 19:19 | 52.92431 | 9.02268 | 10027 ft | 205 kts | 144° |
| 2026-05-07 19:19 | 52.91264 | 9.03646 | 10636 ft | 207 kts | 144° |
| 2026-05-07 19:20 | 52.90083 | 9.05038 | 11254 ft | 209 kts | 144° |
| 2026-05-07 19:20 | 52.88890 | 9.06444 | 11886 ft | 211 kts | 144° |
| 2026-05-07 19:20 | 52.87691 | 9.07857 | 12527 ft | 212 kts | 145° |
| 2026-05-07 19:20 | 52.86483 | 9.09278 | 13182 ft | 213 kts | 145° |
| 2026-05-07 19:21 | 52.85269 | 9.10706 | 13851 ft | 214 kts | 145° |
| 2026-05-07 19:21 | 52.84050 | 9.12139 | 14458 ft | 215 kts | 145° |
| 2026-05-07 19:21 | 52.82833 | 9.13574 | 15071 ft | 215 kts | 145° |
| 2026-05-07 19:21 | 52.81620 | 9.15015 | 15707 ft | 215 kts | 144° |
| 2026-05-07 19:22 | 52.80410 | 9.16461 | 16349 ft | 214 kts | 147° |
| 2026-05-07 19:22 | 52.79179 | 9.17833 | 16996 ft | 213 kts | 146° |
| 2026-05-07 19:22 | 52.77973 | 9.19274 | 17642 ft | 214 kts | 145° |
| 2026-05-07 19:22 | 52.76762 | 9.20709 | 18295 ft | 214 kts | 146° |
| 2026-05-07 19:23 | 52.75539 | 9.22121 | 18879 ft | 216 kts | 146° |
| 2026-05-07 19:23 | 52.74305 | 9.23564 | 19463 ft | 220 kts | 146° |
| 2026-05-07 19:23 | 52.73045 | 9.25044 | 20053 ft | 224 kts | 146° |
| 2026-05-07 19:23 | 52.71781 | 9.26515 | 20654 ft | 227 kts | 147° |
| 2026-05-07 19:24 | 52.70482 | 9.28027 | 21249 ft | 230 kts | 147° |
| 2026-05-07 19:24 | 52.69156 | 9.29576 | 21769 ft | 237 kts | 147° |
| 2026-05-07 19:24 | 52.67789 | 9.31167 | 22243 ft | 244 kts | 147° |
| 2026-05-07 19:24 | 52.66387 | 9.32796 | 22695 ft | 251 kts | 147° |
| 2026-05-07 19:25 | 52.64924 | 9.34497 | 22927 ft | 264 kts | 147° |
| 2026-05-07 19:25 | 52.63382 | 9.36287 | 23028 ft | 278 kts | 147° |
| 2026-05-07 19:25 | 52.61795 | 9.38221 | 23067 ft | 289 kts | 142° |
| 2026-05-07 19:25 | 52.60262 | 9.40458 | 23088 ft | 298 kts | 140° |
| 2026-05-07 19:26 | 52.58646 | 9.42652 | 23098 ft | 305 kts | 143° |
| 2026-05-07 19:26 | 52.57001 | 9.44903 | 23099 ft | 310 kts | 141° |
| 2026-05-07 19:26 | 52.55348 | 9.47205 | 23101 ft | 313 kts | 142° |
| 2026-05-07 19:26 | 52.53680 | 9.49471 | 23100 ft | 315 kts | 142° |
| 2026-05-07 19:27 | 52.51997 | 9.51792 | 23101 ft | 317 kts | 141° |
| 2026-05-07 19:27 | 52.50299 | 9.54121 | 23103 ft | 318 kts | 142° |
| 2026-05-07 19:27 | 52.48592 | 9.56454 | 23130 ft | 319 kts | 141° |
| 2026-05-07 19:27 | 52.46885 | 9.58794 | 23130 ft | 320 kts | 142° |
| 2026-05-07 19:28 | 52.45172 | 9.61134 | 23128 ft | 321 kts | 142° |
| 2026-05-07 19:28 | 52.43456 | 9.63477 | 23131 ft | 321 kts | 141° |
| 2026-05-07 19:28 | 52.41740 | 9.65819 | 23128 ft | 321 kts | 141° |
| 2026-05-07 19:28 | 52.40018 | 9.68165 | 23128 ft | 322 kts | 142° |
| 2026-05-07 19:29 | 52.38296 | 9.70509 | 23127 ft | 322 kts | 142° |
| 2026-05-07 19:29 | 52.36573 | 9.72852 | 23129 ft | 322 kts | 142° |
| 2026-05-07 19:29 | 52.34849 | 9.75194 | 23129 ft | 322 kts | 142° |
| 2026-05-07 19:29 | 52.33126 | 9.77533 | 23127 ft | 322 kts | 142° |
| 2026-05-07 19:30 | 52.31399 | 9.79874 | 23124 ft | 322 kts | 142° |
| 2026-05-07 19:30 | 52.29674 | 9.82211 | 23121 ft | 322 kts | 142° |
| 2026-05-07 19:30 | 52.27946 | 9.84548 | 23118 ft | 322 kts | 142° |
| 2026-05-07 19:30 | 52.26221 | 9.86882 | 23119 ft | 322 kts | 141° |
| 2026-05-07 19:31 | 52.24666 | 9.89519 | 23116 ft | 323 kts | 131° |
| 2026-05-07 19:31 | 52.23411 | 9.92554 | 23115 ft | 324 kts | 121° |
| 2026-05-07 19:31 | 52.22277 | 9.95733 | 23112 ft | 323 kts | 123° |
| 2026-05-07 19:31 | 52.21053 | 9.98753 | 23113 ft | 324 kts | 124° |
| 2026-05-07 19:32 | 52.19849 | 10.01910 | 23108 ft | 324 kts | 122° |
| 2026-05-07 19:32 | 52.18655 | 10.04964 | 23109 ft | 324 kts | 124° |
| 2026-05-07 19:32 | 52.17441 | 10.08060 | 23108 ft | 324 kts | 123° |
| 2026-05-07 19:32 | 52.16239 | 10.11162 | 23109 ft | 324 kts | 123° |
| 2026-05-07 19:33 | 52.15025 | 10.14253 | 23105 ft | 324 kts | 123° |
| 2026-05-07 19:33 | 52.13815 | 10.17349 | 23104 ft | 324 kts | 123° |
| 2026-05-07 19:33 | 52.12604 | 10.20441 | 23105 ft | 324 kts | 123° |
| 2026-05-07 19:33 | 52.11390 | 10.23533 | 23107 ft | 324 kts | 123° |
| 2026-05-07 19:34 | 52.10176 | 10.26626 | 23101 ft | 324 kts | 123° |
| 2026-05-07 19:34 | 52.08960 | 10.29718 | 23107 ft | 324 kts | 123° |
| 2026-05-07 19:34 | 52.07744 | 10.32806 | 23104 ft | 324 kts | 123° |
| 2026-05-07 19:34 | 52.06528 | 10.35891 | 23105 ft | 324 kts | 123° |
| 2026-05-07 19:35 | 52.05310 | 10.38977 | 23099 ft | 324 kts | 123° |
| 2026-05-07 19:35 | 52.04091 | 10.42063 | 23101 ft | 324 kts | 123° |
| 2026-05-07 19:35 | 52.02872 | 10.45143 | 23102 ft | 324 kts | 123° |
| 2026-05-07 19:35 | 52.01654 | 10.48220 | 23099 ft | 324 kts | 123° |
| 2026-05-07 19:36 | 52.00405 | 10.51273 | 23106 ft | 323 kts | 129° |
| 2026-05-07 19:36 | 51.98825 | 10.53845 | 23108 ft | 321 kts | 142° |
| 2026-05-07 19:36 | 51.96991 | 10.55898 | 23104 ft | 321 kts | 149° |
| 2026-05-07 19:36 | 51.95127 | 10.57898 | 23106 ft | 321 kts | 145° |
| 2026-05-07 19:37 | 51.93320 | 10.60041 | 23105 ft | 321 kts | 146° |
| 2026-05-07 19:37 | 51.91496 | 10.62061 | 23101 ft | 322 kts | 146° |
| 2026-05-07 19:37 | 51.89672 | 10.64160 | 23101 ft | 322 kts | 146° |
| 2026-05-07 19:37 | 51.87833 | 10.66246 | 23100 ft | 322 kts | 146° |
| 2026-05-07 19:38 | 51.85995 | 10.68322 | 23100 ft | 322 kts | 146° |
| 2026-05-07 19:38 | 51.84159 | 10.70413 | 23100 ft | 322 kts | 146° |
| 2026-05-07 19:38 | 51.82319 | 10.72489 | 23099 ft | 323 kts | 146° |
| 2026-05-07 19:38 | 51.80483 | 10.74567 | 23100 ft | 323 kts | 146° |
| 2026-05-07 19:39 | 51.78643 | 10.76647 | 23104 ft | 323 kts | 146° |
| 2026-05-07 19:39 | 51.76803 | 10.78720 | 23101 ft | 323 kts | 146° |
| 2026-05-07 19:39 | 51.74959 | 10.80802 | 23100 ft | 323 kts | 146° |
| 2026-05-07 19:39 | 51.73740 | 10.82178 | 23100 ft | 323 kts | 146° |
| 2026-05-07 19:40 | 51.71781 | 10.85806 | 23097 ft | 325 kts | 117° |
| 2026-05-07 19:40 | 51.70949 | 10.89192 | 23101 ft | 325 kts | 109° |
| 2026-05-07 19:40 | 51.70241 | 10.92647 | 23099 ft | 325 kts | 109° |
| 2026-05-07 19:40 | 51.69396 | 10.96024 | 23105 ft | 325 kts | 113° |
| 2026-05-07 19:41 | 51.68572 | 10.99409 | 23092 ft | 325 kts | 110° |
| 2026-05-07 19:41 | 51.67757 | 11.02809 | 23097 ft | 325 kts | 112° |
| 2026-05-07 19:41 | 51.66928 | 11.06143 | 23098 ft | 325 kts | 111° |
| 2026-05-07 19:41 | 51.66100 | 11.09582 | 23102 ft | 325 kts | 111° |
| 2026-05-07 19:42 | 51.65278 | 11.12920 | 23100 ft | 325 kts | 112° |
| 2026-05-07 19:42 | 51.64449 | 11.16302 | 23098 ft | 325 kts | 111° |
| 2026-05-07 19:42 | 51.63620 | 11.19685 | 23101 ft | 325 kts | 111° |
| 2026-05-07 19:42 | 51.62787 | 11.23069 | 23102 ft | 325 kts | 111° |
| 2026-05-07 19:43 | 51.61943 | 11.26445 | 23096 ft | 325 kts | 111° |
| 2026-05-07 19:43 | 51.61243 | 11.29890 | 23097 ft | 324 kts | 106° |
| 2026-05-07 19:43 | 51.60538 | 11.33340 | 23093 ft | 324 kts | 109° |
| 2026-05-07 19:43 | 51.59807 | 11.36771 | 23101 ft | 324 kts | 108° |
| 2026-05-07 19:44 | 51.59107 | 11.40219 | 23096 ft | 324 kts | 108° |
| 2026-05-07 19:44 | 51.58378 | 11.43655 | 23093 ft | 324 kts | 108° |
| 2026-05-07 19:44 | 51.57666 | 11.47091 | 23092 ft | 324 kts | 108° |
| 2026-05-07 19:44 | 51.56947 | 11.50531 | 23093 ft | 324 kts | 108° |
| 2026-05-07 19:45 | 51.56223 | 11.53973 | 22993 ft | 327 kts | 108° |
| 2026-05-07 19:45 | 51.55496 | 11.57445 | 22665 ft | 325 kts | 108° |
| 2026-05-07 19:45 | 51.55020 | 11.59714 | 22444 ft | 323 kts | 108° |
| 2026-05-07 19:45 | 51.54069 | 11.64225 | 22017 ft | 320 kts | 108° |
| 2026-05-07 19:46 | 51.53358 | 11.67601 | 21696 ft | 318 kts | 108° |
| 2026-05-07 19:46 | 51.52649 | 11.70953 | 21388 ft | 316 kts | 108° |
| 2026-05-07 19:46 | 51.51944 | 11.74287 | 21054 ft | 315 kts | 108° |
| 2026-05-07 19:46 | 51.51245 | 11.77587 | 20699 ft | 314 kts | 108° |
| 2026-05-07 19:47 | 51.50922 | 11.79108 | 20533 ft | 315 kts | 108° |
| 2026-05-07 19:47 | 51.50212 | 11.82445 | 20306 ft | 315 kts | 108° |
| 2026-05-07 19:47 | 51.49511 | 11.85742 | 20195 ft | 310 kts | 108° |
| 2026-05-07 19:47 | 51.48811 | 11.89023 | 20143 ft | 305 kts | 108° |
| 2026-05-07 19:48 | 51.48139 | 11.92175 | 20121 ft | 300 kts | 108° |
| 2026-05-07 19:48 | 51.47467 | 11.95318 | 20109 ft | 296 kts | 108° |
| 2026-05-07 19:48 | 51.46800 | 11.98431 | 20106 ft | 293 kts | 108° |
| 2026-05-07 19:48 | 51.46139 | 12.01510 | 20104 ft | 291 kts | 108° |
| 2026-05-07 19:49 | 51.45482 | 12.04573 | 20017 ft | 291 kts | 108° |
| 2026-05-07 19:49 | 51.44810 | 12.07699 | 19517 ft | 302 kts | 108° |
| 2026-05-07 19:49 | 51.44115 | 12.10917 | 19034 ft | 308 kts | 108° |
| 2026-05-07 19:49 | 51.43409 | 12.14190 | 18558 ft | 312 kts | 108° |
| 2026-05-07 19:50 | 51.42697 | 12.17486 | 18040 ft | 314 kts | 108° |
| 2026-05-07 19:50 | 51.41983 | 12.20791 | 17500 ft | 314 kts | 107° |
| 2026-05-07 19:50 | 51.41268 | 12.24098 | 16968 ft | 314 kts | 110° |
| 2026-05-07 19:50 | 51.40434 | 12.27305 | 16448 ft | 311 kts | 110° |
| 2026-05-07 19:51 | 51.39672 | 12.30536 | 15939 ft | 308 kts | 109° |
| 2026-05-07 19:51 | 51.38888 | 12.33710 | 15504 ft | 305 kts | 110° |
| 2026-05-07 19:51 | 51.38132 | 12.36778 | 15296 ft | 295 kts | 109° |
| 2026-05-07 19:51 | 51.37401 | 12.39791 | 15191 ft | 285 kts | 110° |
| 2026-05-07 19:52 | 51.36681 | 12.42700 | 15139 ft | 277 kts | 110° |
| 2026-05-07 19:52 | 51.35980 | 12.45537 | 15120 ft | 271 kts | 111° |
| 2026-05-07 19:52 | 51.35229 | 12.48278 | 15106 ft | 267 kts | 113° |
| 2026-05-07 19:52 | 51.34454 | 12.50951 | 15097 ft | 264 kts | 114° |
| 2026-05-07 19:53 | 51.33673 | 12.53593 | 15095 ft | 262 kts | 114° |
| 2026-05-07 19:53 | 51.32890 | 12.56228 | 15007 ft | 263 kts | 114° |
| 2026-05-07 19:53 | 51.32044 | 12.58870 | 14751 ft | 270 kts | 118° |
| 2026-05-07 19:53 | 51.31124 | 12.61527 | 14459 ft | 276 kts | 119° |
| 2026-05-07 19:54 | 51.30175 | 12.64208 | 14166 ft | 279 kts | 119° |
| 2026-05-07 19:54 | 51.29213 | 12.66908 | 13876 ft | 280 kts | 120° |
| 2026-05-07 19:54 | 51.28249 | 12.69619 | 13551 ft | 281 kts | 120° |
| 2026-05-07 19:54 | 51.27283 | 12.72345 | 13181 ft | 283 kts | 120° |
| 2026-05-07 19:55 | 51.26315 | 12.75085 | 12809 ft | 284 kts | 120° |
| 2026-05-07 19:55 | 51.25347 | 12.77831 | 12443 ft | 284 kts | 120° |
| 2026-05-07 19:55 | 51.24382 | 12.80579 | 12081 ft | 284 kts | 120° |
| 2026-05-07 19:55 | 51.23419 | 12.83324 | 11722 ft | 283 kts | 120° |
| 2026-05-07 19:56 | 51.22457 | 12.86065 | 11366 ft | 282 kts | 120° |
| 2026-05-07 19:56 | 51.21499 | 12.88800 | 11013 ft | 281 kts | 120° |
| 2026-05-07 19:56 | 51.20566 | 12.91466 | 10674 ft | 277 kts | 120° |
| 2026-05-07 19:56 | 51.19636 | 12.94131 | 10326 ft | 274 kts | 120° |
| 2026-05-07 19:57 | 51.18716 | 12.96776 | 9984 ft | 272 kts | 120° |
| 2026-05-07 19:57 | 51.17805 | 12.99404 | 9608 ft | 270 kts | 120° |
| 2026-05-07 19:57 | 51.16902 | 13.02015 | 9235 ft | 269 kts | 120° |
| 2026-05-07 19:57 | 51.16002 | 13.04619 | 8867 ft | 268 kts | 120° |
| 2026-05-07 19:58 | 51.15110 | 13.07203 | 8572 ft | 264 kts | 120° |
| 2026-05-07 19:58 | 51.14230 | 13.09755 | 8272 ft | 263 kts | 120° |
| 2026-05-07 19:58 | 51.13350 | 13.12308 | 7908 ft | 263 kts | 120° |
| 2026-05-07 19:58 | 51.12470 | 13.14860 | 7552 ft | 263 kts | 120° |
| 2026-05-07 19:59 | 51.11588 | 13.17412 | 7198 ft | 263 kts | 120° |
| 2026-05-07 19:59 | 51.10705 | 13.19963 | 6853 ft | 263 kts | 120° |
| 2026-05-07 19:59 | 51.09819 | 13.22510 | 6504 ft | 263 kts | 120° |
| 2026-05-07 19:59 | 51.08929 | 13.25059 | 6135 ft | 263 kts | 120° |
| 2026-05-07 20:00 | 51.08039 | 13.27601 | 5777 ft | 263 kts | 120° |
| 2026-05-07 20:00 | 51.07154 | 13.30110 | 5471 ft | 254 kts | 120° |
| 2026-05-07 20:00 | 51.06309 | 13.32495 | 5214 ft | 242 kts | 120° |
| 2026-05-07 20:00 | 51.05495 | 13.34776 | 4964 ft | 233 kts | 120° |
| 2026-05-07 20:01 | 51.04705 | 13.36977 | 4700 ft | 226 kts | 120° |
| 2026-05-07 20:01 | 51.03933 | 13.39117 | 4430 ft | 220 kts | 120° |
| 2026-05-07 20:01 | 51.03176 | 13.41206 | 4203 ft | 215 kts | 120° |
| 2026-05-07 20:01 | 51.02444 | 13.43215 | 4091 ft | 207 kts | 120° |
| 2026-05-07 20:02 | 51.01720 | 13.45199 | 4038 ft | 211 kts | 120° |
| 2026-05-07 20:02 | 51.00971 | 13.47248 | 4016 ft | 217 kts | 120° |
| 2026-05-07 20:02 | 51.00206 | 13.49340 | 4007 ft | 221 kts | 120° |
| 2026-05-07 20:02 | 50.99434 | 13.51477 | 3925 ft | 226 kts | 116° |
| 2026-05-07 20:03 | 50.99131 | 13.53897 | 3796 ft | 230 kts | 85° |
| 2026-05-07 20:03 | 50.99363 | 13.56343 | 3669 ft | 218 kts | 78° |
| 2026-05-07 20:03 | 50.99795 | 13.58544 | 3577 ft | 202 kts | 57° |
| 2026-05-07 20:03 | 51.00721 | 13.60087 | 3538 ft | 187 kts | 39° |
| 2026-05-07 20:04 | 51.01696 | 13.61357 | 3518 ft | 177 kts | 37° |
| 2026-05-07 20:04 | 51.02621 | 13.62498 | 3349 ft | 157 kts | 36° |
| 2026-05-07 20:04 | 51.03453 | 13.63502 | 3121 ft | 150 kts | 36° |
| 2026-05-07 20:04 | 51.04282 | 13.64491 | 2938 ft | 148 kts | 35° |
| 2026-05-07 20:05 | 51.05103 | 13.65473 | 2750 ft | 147 kts | 36° |
| 2026-05-07 20:05 | 51.05916 | 13.66462 | 2555 ft | 147 kts | 37° |
| 2026-05-07 20:05 | 51.06701 | 13.67515 | 2357 ft | 148 kts | 40° |
| 2026-05-07 20:05 | 51.07469 | 13.68606 | 2140 ft | 148 kts | 40° |
| 2026-05-07 20:06 | 51.08243 | 13.69686 | 1925 ft | 147 kts | 39° |
| 2026-05-07 20:06 | 51.09020 | 13.70737 | 1715 ft | 146 kts | 38° |
| 2026-05-07 20:06 | 51.09788 | 13.71775 | 1488 ft | 144 kts | 40° |
| 2026-05-07 20:06 | 51.10537 | 13.72789 | 1300 ft | 137 kts | 40° |
| 2026-05-07 20:07 | 51.11221 | 13.73743 | 1120 ft | 123 kts | 39° |
| 2026-05-07 20:07 | 51.11853 | 13.74628 | 951 ft | 119 kts | 40° |
| 2026-05-07 20:07 | 51.12462 | 13.75463 | 813 ft | 109 kts | 40° |
| 2026-05-07 20:07 | 51.12986 | 13.76182 | 742 ft | 89 kts | 41° |
| 2026-05-07 20:08 | 51.13344 | 13.76674 | 732 ft | 53 kts | 41° |
| 2026-05-07 20:08 | 51.13589 | 13.77008 | 723 ft | 42 kts | 39° |
| 2026-05-07 20:08 | 51.13793 | 13.77290 | 722 ft | 37 kts | 41° |
| 2026-05-07 20:08 | 51.13904 | 13.77473 | 715 ft | 12 kts | 90° |
| 2026-05-07 20:09 | 51.13846 | 13.77612 | 714 ft | 12 kts | 131° |
| 2026-05-07 20:09 | 51.13812 | 13.77675 | 713 ft | 3 kts | 131° |
| 2026-05-07 20:09 | 51.13811 | 13.77677 | 713 ft | 0 kts | 131° |
| 2026-05-07 20:10 | 51.13810 | 13.77678 | 715 ft | 3 kts | 131° |
| 2026-05-07 20:10 | 51.13766 | 13.77724 | 712 ft | 6 kts | 197° |
| 2026-05-07 20:10 | 51.13715 | 13.77663 | 712 ft | 11 kts | 221° |
| 2026-05-07 20:10 | 51.13645 | 13.77567 | 720 ft | 16 kts | 221° |
| 2026-05-07 20:11 | 51.13558 | 13.77446 | 720 ft | 18 kts | 221° |
| 2026-05-07 20:11 | 51.13474 | 13.77333 | 725 ft | 13 kts | 220° |
| 2026-05-07 20:11 | 51.13411 | 13.77244 | 722 ft | 13 kts | 220° |
| 2026-05-07 20:11 | 51.13338 | 13.77144 | 725 ft | 15 kts | 220° |
| 2026-05-07 20:12 | 51.13266 | 13.77047 | 728 ft | 13 kts | 221° |
| 2026-05-07 20:12 | 51.13182 | 13.76930 | 733 ft | 16 kts | 220° |
| 2026-05-07 20:12 | 51.13098 | 13.76814 | 737 ft | 15 kts | 221° |
| 2026-05-07 20:12 | 51.13013 | 13.76696 | 740 ft | 15 kts | 221° |
| 2026-05-07 20:13 | 51.12942 | 13.76598 | 742 ft | 13 kts | 221° |
| 2026-05-07 20:13 | 51.12867 | 13.76496 | 742 ft | 14 kts | 220° |
| 2026-05-07 20:13 | 51.12801 | 13.76451 | 744 ft | 9 kts | 160° |
| 2026-05-07 20:13 | 51.12754 | 13.76470 | 746 ft | 8 kts | 221° |
| 2026-05-07 20:14 | 51.12707 | 13.76409 | 746 ft | 8 kts | 218° |
| 2026-05-07 20:14 | 51.12663 | 13.76345 | 747 ft | 8 kts | 223° |
| 2026-05-07 20:14 | 51.12628 | 13.76299 | 747 ft | 5 kts | 220° |
| 2026-05-07 20:14 | 51.12606 | 13.76313 | 747 ft | 4 kts | 103° |
| 2026-05-07 20:15 | 51.12601 | 13.76345 | 749 ft | 1 kts | 120° |
| 2026-05-07 20:15 | 51.12599 | 13.76349 | 749 ft | 0 kts | 128° |